createdAt,value
2023-03-25T00:00:17.263Z,98.50
2023-03-25T00:02:46.683Z,98.50
2023-03-25T00:05:17.137Z,98.50
2023-03-25T00:07:45.232Z,98.50
2023-03-25T00:10:13.451Z,98.50
2023-03-25T00:12:41.147Z,98.50
2023-03-25T00:15:11.568Z,98.50
2023-03-25T00:17:38.549Z,98.50
2023-03-25T00:20:11.579Z,98.50
2023-03-25T00:22:44.445Z,98.50
2023-03-25T00:25:17.143Z,98.50
2023-03-25T00:27:46.302Z,98.50
2023-03-25T00:30:14.514Z,98.50
2023-03-25T00:32:41.611Z,98.50
2023-03-25T00:35:08.778Z,98.50
2023-03-25T00:37:35.669Z,98.50
2023-03-25T00:40:03.764Z,98.50
2023-03-25T00:42:30.569Z,98.50
2023-03-25T00:44:57.324Z,98.50
2023-03-25T00:47:24.470Z,98.50
2023-03-25T00:49:51.956Z,98.50
2023-03-25T00:52:19.734Z,98.50
2023-03-25T00:54:46.825Z,98.50
2023-03-25T00:57:13.628Z,98.50
2023-03-25T00:59:43.426Z,98.50
2023-03-25T01:02:10.294Z,98.50
2023-03-25T01:04:41.501Z,98.50
2023-03-25T01:07:09.778Z,98.50
2023-03-25T01:09:37.338Z,98.50
2023-03-25T01:12:04.329Z,98.50
2023-03-25T01:14:31.215Z,98.50
2023-03-25T01:16:59.664Z,98.50
2023-03-25T01:19:26.783Z,98.50
2023-03-25T01:21:53.544Z,98.50
2023-03-25T01:24:20.334Z,98.50
2023-03-25T01:26:47.229Z,98.50
2023-03-25T01:29:16.438Z,98.50
2023-03-25T01:31:44.209Z,98.50
2023-03-25T01:34:11.680Z,98.50
2023-03-25T01:36:39.843Z,98.50
2023-03-25T01:39:08.785Z,98.50
2023-03-25T01:41:49.214Z,98.50
2023-03-25T01:44:19.626Z,98.50
2023-03-25T01:46:49.809Z,98.50
2023-03-25T01:49:30.035Z,98.50
2023-03-25T01:52:05.350Z,98.50
2023-03-25T01:54:32.696Z,98.50
2023-03-25T01:56:59.556Z,98.50
2023-03-25T01:59:28.413Z,98.50
2023-03-25T02:02:02.480Z,98.50
2023-03-25T02:04:51.705Z,98.50
2023-03-25T02:07:19.846Z,98.50
2023-03-25T02:09:46.629Z,98.50
2023-03-25T02:12:13.368Z,98.50
2023-03-25T02:14:41.231Z,98.50
2023-03-25T02:17:43.817Z,98.50
2023-03-25T02:20:33.778Z,98.50
2023-03-25T02:23:58.206Z,98.50
2023-03-25T02:26:59.838Z,98.50
2023-03-25T02:30:07.760Z,98.50
2023-03-25T02:32:54.135Z,98.50
2023-03-25T02:35:48.150Z,98.50
2023-03-25T02:38:27.683Z,98.50
2023-03-25T02:41:20.321Z,98.50
2023-03-25T02:43:49.837Z,98.50
2023-03-25T02:46:17.998Z,98.50
2023-03-25T02:49:05.140Z,98.50
2023-03-25T02:51:36.792Z,98.50
2023-03-25T02:54:11.689Z,98.50
2023-03-25T02:56:40.844Z,98.50
2023-03-25T02:59:09.801Z,98.50
2023-03-25T03:01:36.942Z,98.50
2023-03-25T03:04:03.691Z,98.50
2023-03-25T03:06:31.857Z,98.50
2023-03-25T03:09:13.832Z,98.50
2023-03-25T03:11:56.767Z,98.50
2023-03-25T03:14:58.261Z,98.50
2023-03-25T03:17:41.191Z,98.50
2023-03-25T03:20:19.273Z,98.50
2023-03-25T03:23:02.014Z,98.50
2023-03-25T03:25:49.313Z,98.50
2023-03-25T03:28:24.692Z,98.50
2023-03-25T03:30:59.614Z,98.50
2023-03-25T03:33:47.733Z,98.50
2023-03-25T03:36:18.922Z,98.50
2023-03-25T03:38:56.066Z,98.50
2023-03-25T03:41:25.495Z,98.50
2023-03-25T03:43:58.021Z,98.50
2023-03-25T03:46:33.841Z,98.50
2023-03-25T03:49:04.169Z,98.50
2023-03-25T03:51:37.855Z,98.50
2023-03-25T03:54:21.116Z,98.50
2023-03-25T03:56:53.747Z,98.50
2023-03-25T03:59:47.165Z,98.50
2023-03-25T04:02:38.366Z,98.50
2023-03-25T04:05:11.499Z,98.50
2023-03-25T04:08:03.763Z,98.50
2023-03-25T04:10:52.748Z,98.50
2023-03-25T04:13:21.764Z,98.50
2023-03-25T04:15:49.514Z,98.50
2023-03-25T04:18:17.597Z,98.50
2023-03-25T04:20:49.768Z,98.50
2023-03-25T04:23:19.691Z,98.50
2023-03-25T04:25:55.404Z,98.50
2023-03-25T04:28:23.965Z,98.50
2023-03-25T04:30:55.690Z,98.50
2023-03-25T04:33:23.349Z,98.50
2023-03-25T04:35:51.034Z,98.50
2023-03-25T04:38:18.933Z,98.50
2023-03-25T04:40:49.123Z,98.50
2023-03-25T04:43:17.078Z,98.50
2023-03-25T04:45:54.558Z,98.50
2023-03-25T04:48:29.937Z,98.50
2023-03-25T04:50:58.886Z,98.50
2023-03-25T04:53:27.096Z,98.50
2023-03-25T04:55:54.684Z,98.50
2023-03-25T04:58:22.074Z,98.50
2023-03-25T05:00:51.480Z,98.50
2023-03-25T05:03:24.017Z,98.50
2023-03-25T05:05:51.772Z,98.50
2023-03-25T05:08:18.762Z,98.50
2023-03-25T05:10:45.538Z,98.50
2023-03-25T05:13:12.296Z,98.50
2023-03-25T05:15:39.639Z,98.50
2023-03-25T05:18:13.694Z,98.50
2023-03-25T05:20:43.179Z,98.50
2023-03-25T05:23:12.241Z,98.50
2023-03-25T05:25:40.274Z,98.50
2023-03-25T05:28:09.901Z,98.50
2023-03-25T05:30:41.836Z,98.50
2023-03-25T05:33:12.266Z,98.50
2023-03-25T05:35:39.536Z,98.50
2023-03-25T05:38:12.370Z,98.50
2023-03-25T05:40:40.185Z,98.50
2023-03-25T05:43:07.381Z,98.50
2023-03-25T05:45:37.711Z,98.50
2023-03-25T05:48:05.031Z,98.50
2023-03-25T05:50:31.782Z,98.50
2023-03-25T05:52:59.944Z,98.50
2023-03-25T05:55:27.588Z,98.50
2023-03-25T05:57:54.320Z,98.50
2023-03-25T06:00:23.682Z,98.50
2023-03-25T06:02:50.981Z,98.50
2023-03-25T06:05:18.046Z,98.50
2023-03-25T06:07:47.336Z,98.50
2023-03-25T06:10:17.811Z,98.50
2023-03-25T06:12:48.475Z,98.50
2023-03-25T06:15:18.094Z,98.50
2023-03-25T06:17:47.201Z,98.50
2023-03-25T06:20:16.301Z,98.50
2023-03-25T06:22:45.307Z,98.50
2023-03-25T06:25:17.474Z,98.50
2023-03-25T06:27:44.526Z,98.50
2023-03-25T06:30:17.734Z,98.50
2023-03-25T06:32:44.605Z,98.50
2023-03-25T06:35:11.949Z,98.50
2023-03-25T06:37:39.299Z,98.50
2023-03-25T06:40:06.595Z,98.50
2023-03-25T06:42:33.926Z,98.50
2023-03-25T06:45:02.974Z,98.50
2023-03-25T06:47:29.755Z,98.50
2023-03-25T06:49:56.434Z,98.50
2023-03-25T06:52:23.086Z,98.50
2023-03-25T06:54:49.949Z,97.10
2023-03-25T06:57:16.665Z,98.20
2023-03-25T06:59:43.770Z,97.10
2023-03-25T07:02:14.483Z,96.80
2023-03-25T07:04:41.737Z,97.30
2023-03-25T07:07:09.039Z,97.30
2023-03-25T07:09:35.978Z,97.70
2023-03-25T07:12:02.766Z,98.40
2023-03-25T07:14:29.670Z,98.50
2023-03-25T07:16:56.621Z,98.50
2023-03-25T07:19:23.290Z,98.50
2023-03-25T07:21:49.954Z,98.50
2023-03-25T07:24:16.631Z,98.50
2023-03-25T07:26:43.450Z,98.50
2023-03-25T07:29:10.291Z,98.50
2023-03-25T07:31:37.030Z,98.50
2023-03-25T07:34:04.567Z,98.50
2023-03-25T07:36:31.250Z,98.50
2023-03-25T07:38:57.953Z,98.50
2023-03-25T07:41:24.672Z,98.50
2023-03-25T07:43:51.329Z,98.50
2023-03-25T07:46:18.013Z,98.50
2023-03-25T07:48:44.726Z,98.50
2023-03-25T07:51:11.402Z,98.50
2023-03-25T07:53:39.570Z,98.50
2023-03-25T07:56:07.275Z,98.50
2023-03-25T07:58:34.218Z,98.50
2023-03-25T08:01:00.991Z,98.50
2023-03-25T08:03:28.552Z,98.50
2023-03-25T08:05:56.207Z,98.50
2023-03-25T08:08:22.966Z,98.50
2023-03-25T08:10:51.144Z,98.50
2023-03-25T08:13:17.835Z,98.50
2023-03-25T08:15:44.536Z,98.50
2023-03-25T08:18:11.267Z,98.50
2023-03-25T08:20:37.957Z,98.50
2023-03-25T08:23:10.216Z,98.50
2023-03-25T08:25:38.907Z,98.50
2023-03-25T08:28:06.255Z,98.50
2023-03-25T08:30:38.826Z,98.50
2023-03-25T08:33:07.510Z,97.90
2023-03-25T08:35:36.452Z,97.30
2023-03-25T08:38:06.657Z,97.80
2023-03-25T08:40:36.722Z,98.20
2023-03-25T08:43:07.471Z,97.20
2023-03-25T08:45:36.386Z,97.70
2023-03-25T08:48:04.049Z,97.50
2023-03-25T08:50:30.911Z,95.30
2023-03-25T08:52:58.704Z,96.50
2023-03-25T08:55:26.820Z,97.50
2023-03-25T08:57:53.483Z,98.50
2023-03-25T09:00:24.255Z,98.40
2023-03-25T09:02:51.613Z,98.50
2023-03-25T09:05:19.180Z,98.50
2023-03-25T09:07:46.660Z,98.50
2023-03-25T09:10:14.111Z,98.50
2023-03-25T09:12:41.509Z,98.50
2023-03-25T09:15:09.575Z,98.50
2023-03-25T09:17:36.362Z,98.50
2023-03-25T09:20:03.951Z,98.50
2023-03-25T09:22:30.632Z,98.50
2023-03-25T09:24:57.665Z,98.50
2023-03-25T09:27:24.334Z,98.50
2023-03-25T09:29:51.354Z,98.50
2023-03-25T09:32:18.709Z,98.50
2023-03-25T09:34:45.708Z,98.50
2023-03-25T09:37:12.654Z,98.50
2023-03-25T09:39:39.512Z,98.50
2023-03-25T09:42:33.977Z,97.70
2023-03-25T09:45:14.652Z,98.30
2023-03-25T09:48:01.676Z,98.50
2023-03-25T09:50:31.792Z,95.60
2023-03-25T09:53:39.684Z,95.20
2023-03-25T09:56:11.836Z,95.90
2023-03-25T09:58:46.270Z,94.20
2023-03-25T10:01:52.156Z,94.50
2023-03-25T10:04:29.074Z,93.90
2023-03-25T10:07:27.781Z,93.40
2023-03-25T10:10:07.721Z,92.90
2023-03-25T10:12:46.487Z,91.90
2023-03-25T10:15:39.007Z,92.30
2023-03-25T10:18:48.033Z,92.30
2023-03-25T10:21:17.062Z,90.40
2023-03-25T10:23:43.716Z,91.20
2023-03-25T10:26:49.499Z,91.80
2023-03-25T10:29:21.464Z,93.00
2023-03-25T10:31:57.942Z,93.00
2023-03-25T10:34:36.222Z,92.20
2023-03-25T10:37:07.780Z,92.40
2023-03-25T10:39:39.797Z,91.10
2023-03-25T10:42:41.728Z,90.60
2023-03-25T10:45:16.204Z,89.00
2023-03-25T10:47:44.505Z,90.00
2023-03-25T10:50:19.122Z,90.20
2023-03-25T10:52:48.923Z,89.30
2023-03-25T10:55:25.251Z,94.20
2023-03-25T10:57:53.636Z,94.00
2023-03-25T11:00:22.001Z,93.40
2023-03-25T11:02:49.450Z,94.10
2023-03-25T11:05:22.416Z,96.40
2023-03-25T11:07:56.892Z,98.50
2023-03-25T11:10:26.537Z,98.50
2023-03-25T11:12:54.585Z,98.50
2023-03-25T11:15:29.555Z,98.20
2023-03-25T11:18:09.542Z,95.20
2023-03-25T11:20:40.362Z,92.80
2023-03-25T11:23:30.454Z,91.30
2023-03-25T11:26:06.749Z,93.20
2023-03-25T11:28:41.427Z,93.40
2023-03-25T11:31:16.640Z,90.70
2023-03-25T11:33:46.277Z,89.00
2023-03-25T11:36:17.686Z,89.00
2023-03-25T11:38:50.916Z,91.20
2023-03-25T11:41:17.590Z,93.20
2023-03-25T11:43:48.896Z,97.00
2023-03-25T11:46:18.833Z,98.50
2023-03-25T11:48:46.757Z,95.50
2023-03-25T11:51:16.079Z,94.70
2023-03-25T11:53:49.784Z,92.80
2023-03-25T11:56:23.031Z,91.90
2023-03-25T11:58:51.897Z,91.50
2023-03-25T12:01:23.976Z,91.90
2023-03-25T12:03:51.855Z,90.60
2023-03-25T12:06:21.936Z,90.60
2023-03-25T12:08:51.504Z,91.70
2023-03-25T12:11:25.724Z,91.60
2023-03-25T12:14:30.227Z,91.90
2023-03-25T12:17:19.955Z,91.50
2023-03-25T12:20:19.245Z,91.80
2023-03-25T12:22:49.944Z,91.50
2023-03-25T12:25:43.479Z,90.50
2023-03-25T12:28:44.657Z,88.80
2023-03-25T12:31:11.551Z,87.80
2023-03-25T12:34:08.674Z,88.50
2023-03-25T12:36:48.207Z,89.60
2023-03-25T12:39:18.031Z,88.70
2023-03-25T12:42:06.325Z,89.80
2023-03-25T12:45:13.972Z,90.00
2023-03-25T12:47:55.363Z,90.40
2023-03-25T12:50:37.185Z,90.20
2023-03-25T12:53:18.105Z,90.10
2023-03-25T12:56:06.802Z,89.40
2023-03-25T12:58:59.869Z,90.30
2023-03-25T13:01:49.402Z,90.20
2023-03-25T13:04:49.033Z,90.20
2023-03-25T13:07:29.363Z,90.50
2023-03-25T13:10:17.512Z,89.30
2023-03-25T13:12:51.042Z,89.30
2023-03-25T13:15:44.203Z,89.80
2023-03-25T13:18:26.735Z,90.00
2023-03-25T13:21:21.909Z,89.10
2023-03-25T13:23:54.704Z,87.50
2023-03-25T13:26:24.735Z,87.60
2023-03-25T13:29:05.489Z,88.40
2023-03-25T13:31:41.072Z,88.00
2023-03-25T13:34:22.970Z,87.80
2023-03-25T13:37:08.308Z,86.70
2023-03-25T13:39:57.023Z,87.70
2023-03-25T13:42:51.372Z,86.80
2023-03-25T13:45:21.192Z,86.60
2023-03-25T13:48:15.739Z,87.60
2023-03-25T13:50:42.811Z,88.60
2023-03-25T13:53:33.022Z,89.80
2023-03-25T13:56:27.373Z,88.40
2023-03-25T13:59:26.064Z,88.20
2023-03-25T14:02:10.271Z,88.90
2023-03-25T14:05:34.092Z,88.50
2023-03-25T14:08:32.772Z,89.00
2023-03-25T14:11:22.323Z,90.40
2023-03-25T14:13:56.089Z,90.70
2023-03-25T14:16:30.713Z,87.50
2023-03-25T14:19:04.104Z,89.30
2023-03-25T14:21:32.536Z,87.20
2023-03-25T14:24:24.897Z,87.20
2023-03-25T14:26:57.790Z,87.90
2023-03-25T14:29:43.379Z,88.20
2023-03-25T14:32:15.862Z,87.90
2023-03-25T14:34:44.058Z,88.90
2023-03-25T14:37:32.135Z,88.80
2023-03-25T14:40:02.204Z,88.80
2023-03-25T14:42:40.831Z,87.90
2023-03-25T14:45:33.740Z,87.20
2023-03-25T14:48:00.642Z,86.90
2023-03-25T14:50:30.124Z,86.80
2023-03-25T14:53:01.227Z,86.20
2023-03-25T14:55:32.798Z,86.40
2023-03-25T14:58:26.437Z,86.10
2023-03-25T15:01:02.058Z,86.70
2023-03-25T15:03:43.852Z,87.70
2023-03-25T15:06:16.693Z,87.60
2023-03-25T15:08:53.126Z,88.30
2023-03-25T15:11:31.344Z,89.20
2023-03-25T15:14:03.295Z,88.50
2023-03-25T15:16:57.883Z,88.70
2023-03-25T15:19:24.584Z,88.70
2023-03-25T15:21:57.268Z,88.80
2023-03-25T15:24:31.946Z,87.80
2023-03-25T15:27:20.010Z,87.50
2023-03-25T15:30:07.569Z,87.80
2023-03-25T15:32:52.126Z,87.70
2023-03-25T15:35:50.828Z,88.40
2023-03-25T15:38:20.577Z,89.10
2023-03-25T15:41:22.856Z,89.00
2023-03-25T15:44:04.448Z,88.50
2023-03-25T15:46:37.268Z,87.70
2023-03-25T15:49:16.279Z,86.80
2023-03-25T15:52:10.797Z,86.90
2023-03-25T15:54:48.255Z,87.30
2023-03-25T15:57:25.587Z,86.00
2023-03-25T15:59:58.962Z,87.10
2023-03-25T16:02:33.758Z,87.90
2023-03-25T16:05:01.175Z,88.40
2023-03-25T16:07:30.833Z,89.80
2023-03-25T16:10:16.332Z,90.10
2023-03-25T16:12:45.580Z,90.90
2023-03-25T16:15:26.828Z,90.20
2023-03-25T16:17:54.204Z,90.40
2023-03-25T16:20:27.989Z,90.50
2023-03-25T16:22:57.103Z,90.20
2023-03-25T16:25:37.847Z,90.30
2023-03-25T16:28:17.630Z,90.50
2023-03-25T16:30:53.383Z,89.70
2023-03-25T16:33:28.776Z,89.20
2023-03-25T16:35:58.367Z,88.90
2023-03-25T16:38:25.511Z,89.40
2023-03-25T16:41:11.616Z,90.20
2023-03-25T16:43:38.814Z,90.70
2023-03-25T16:46:08.188Z,91.60
2023-03-25T16:48:38.248Z,91.90
2023-03-25T16:51:19.757Z,92.30
2023-03-25T16:53:50.399Z,92.40
2023-03-25T16:56:17.111Z,93.10
2023-03-25T16:58:57.985Z,93.60
2023-03-25T17:01:25.638Z,93.60
2023-03-25T17:03:53.710Z,93.00
2023-03-25T17:06:37.152Z,92.70
2023-03-25T17:09:05.085Z,92.70
2023-03-25T17:11:32.996Z,92.80
2023-03-25T17:14:08.398Z,92.60
2023-03-25T17:16:37.966Z,92.50
2023-03-25T17:19:05.148Z,92.90
2023-03-25T17:21:34.086Z,92.90
2023-03-25T17:24:06.573Z,92.60
2023-03-25T17:26:53.967Z,92.80
2023-03-25T17:29:22.070Z,92.10
2023-03-25T17:31:59.198Z,92.40
2023-03-25T17:34:26.490Z,92.90
2023-03-25T17:37:03.590Z,92.70
2023-03-25T17:39:32.900Z,93.00
2023-03-25T17:42:08.099Z,93.10
2023-03-25T17:44:40.275Z,92.80
2023-03-25T17:47:12.555Z,93.10
2023-03-25T17:49:39.239Z,93.50
2023-03-25T17:52:08.754Z,93.50
2023-03-25T17:54:36.334Z,93.90
2023-03-25T17:57:09.174Z,94.30
2023-03-25T17:59:36.176Z,94.60
2023-03-25T18:02:08.954Z,95.00
2023-03-25T18:04:35.666Z,95.10
2023-03-25T18:07:03.249Z,95.70
2023-03-25T18:09:29.922Z,95.90
2023-03-25T18:11:56.894Z,96.30
2023-03-25T18:14:24.613Z,96.50
2023-03-25T18:16:51.850Z,96.50
2023-03-25T18:19:24.702Z,96.30
2023-03-25T18:21:55.010Z,96.60
2023-03-25T18:24:22.659Z,97.20
2023-03-25T18:26:49.894Z,97.20
2023-03-25T18:29:21.064Z,97.00
2023-03-25T18:31:48.225Z,96.50
2023-03-25T18:34:15.742Z,96.40
2023-03-25T18:36:43.743Z,96.30
2023-03-25T18:39:19.553Z,96.40
2023-03-25T18:41:46.338Z,96.70
2023-03-25T18:44:13.437Z,96.90
2023-03-25T18:46:40.857Z,97.10
2023-03-25T18:49:18.856Z,97.40
2023-03-25T18:51:48.245Z,97.60
2023-03-25T18:54:15.397Z,98.00
2023-03-25T18:56:42.470Z,98.30
2023-03-25T18:59:11.231Z,98.20
2023-03-25T19:01:38.057Z,98.50
2023-03-25T19:04:04.908Z,98.50
2023-03-25T19:06:32.110Z,98.50
2023-03-25T19:08:58.793Z,98.50
2023-03-25T19:11:26.204Z,98.50
2023-03-25T19:13:53.238Z,98.50
2023-03-25T19:16:20.772Z,98.50
2023-03-25T19:18:47.726Z,98.50
2023-03-25T19:21:19.103Z,98.50
2023-03-25T19:23:46.857Z,98.50
2023-03-25T19:26:13.901Z,98.50
2023-03-25T19:28:41.182Z,98.50
2023-03-25T19:31:07.990Z,98.50
2023-03-25T19:33:34.794Z,98.50
2023-03-25T19:36:04.272Z,98.50
2023-03-25T19:38:32.930Z,98.50
2023-03-25T19:41:09.807Z,98.50
2023-03-25T19:43:36.738Z,98.50
2023-03-25T19:46:05.300Z,98.50
2023-03-25T19:48:32.313Z,98.50
2023-03-25T19:50:59.065Z,98.50
2023-03-25T19:53:27.913Z,98.50
2023-03-25T19:55:56.314Z,98.50
2023-03-25T19:58:23.352Z,98.50
2023-03-25T20:00:51.171Z,98.50
2023-03-25T20:03:22.121Z,98.50
2023-03-25T20:05:55.830Z,98.50
2023-03-25T20:08:23.252Z,98.50
2023-03-25T20:10:50.041Z,98.50
2023-03-25T20:13:16.708Z,98.50
2023-03-25T20:15:43.749Z,98.50
2023-03-25T20:18:11.000Z,98.50
2023-03-25T20:20:39.248Z,98.50
2023-03-25T20:23:05.921Z,98.50
2023-03-25T20:25:32.597Z,98.50
2023-03-25T20:27:59.273Z,98.50
2023-03-25T20:30:26.223Z,98.50
2023-03-25T20:32:52.881Z,98.50
2023-03-25T20:35:19.739Z,98.50
2023-03-25T20:37:48.774Z,98.50
2023-03-25T20:40:17.516Z,98.50
2023-03-25T20:42:46.282Z,98.50
2023-03-25T20:45:15.380Z,98.50
2023-03-25T20:47:42.892Z,98.50
2023-03-25T20:50:11.748Z,98.50
2023-03-25T20:52:38.808Z,98.50
2023-03-25T20:55:06.117Z,98.50
2023-03-25T20:57:33.402Z,98.50
2023-03-25T21:00:00.254Z,98.50
2023-03-25T21:02:27.122Z,98.50
2023-03-25T21:04:56.839Z,98.50
2023-03-25T21:07:27.701Z,98.50
2023-03-25T21:09:54.513Z,98.50
2023-03-25T21:12:27.118Z,98.50
2023-03-25T21:14:59.969Z,98.50
2023-03-25T21:17:27.825Z,98.50
2023-03-25T21:19:54.841Z,98.50
2023-03-25T21:22:21.928Z,98.50
2023-03-25T21:24:48.617Z,98.50
2023-03-25T21:27:17.370Z,98.50
2023-03-25T21:29:45.849Z,98.50
2023-03-25T21:32:13.926Z,98.50
2023-03-25T21:34:40.750Z,98.50
2023-03-25T21:37:07.504Z,98.50
2023-03-25T21:39:35.166Z,98.50
2023-03-25T21:42:10.097Z,98.50
2023-03-25T21:44:38.229Z,98.50
2023-03-25T21:47:08.621Z,98.50
2023-03-25T21:49:35.438Z,98.50
2023-03-25T21:52:02.169Z,98.50
2023-03-25T21:54:30.539Z,98.50
2023-03-25T21:56:57.262Z,98.50
2023-03-25T21:59:24.019Z,98.50
2023-03-25T22:01:52.662Z,98.50
2023-03-25T22:04:19.699Z,98.50
2023-03-25T22:06:46.681Z,98.50
2023-03-25T22:09:13.360Z,98.50
2023-03-25T22:11:40.340Z,98.50
2023-03-25T22:14:09.419Z,98.50
2023-03-25T22:16:36.723Z,98.50
2023-03-25T22:19:03.717Z,98.50
2023-03-25T22:21:37.442Z,98.50
2023-03-25T22:24:06.584Z,98.50
2023-03-25T22:26:34.169Z,98.50
2023-03-25T22:29:03.933Z,98.50
2023-03-25T22:31:33.211Z,98.50
2023-03-25T22:34:10.687Z,98.50
2023-03-25T22:36:49.684Z,98.50
2023-03-25T22:39:23.001Z,98.50
2023-03-25T22:41:49.932Z,98.50
2023-03-25T22:44:18.114Z,98.50
2023-03-25T22:46:49.099Z,98.50
2023-03-25T22:49:16.611Z,98.50
2023-03-25T22:51:43.368Z,98.50
2023-03-25T22:54:10.725Z,98.50
2023-03-25T22:56:38.446Z,98.50
2023-03-25T22:59:06.708Z,98.50
2023-03-25T23:01:34.369Z,98.50
2023-03-25T23:04:01.185Z,98.50
2023-03-25T23:06:28.271Z,98.50
2023-03-25T23:08:56.482Z,98.50
2023-03-25T23:11:26.708Z,98.50
2023-03-25T23:14:00.440Z,98.50
2023-03-25T23:16:31.497Z,98.50
2023-03-25T23:18:58.860Z,98.50
2023-03-25T23:21:28.607Z,98.50
2023-03-25T23:23:58.049Z,98.50
2023-03-25T23:26:36.368Z,98.50
2023-03-25T23:29:05.806Z,98.50
2023-03-25T23:31:35.299Z,98.50
2023-03-25T23:34:05.361Z,98.50
2023-03-25T23:36:36.067Z,98.50
2023-03-25T23:39:06.379Z,98.50
2023-03-25T23:41:33.819Z,98.50
2023-03-25T23:44:00.920Z,98.50
2023-03-25T23:46:27.731Z,98.50
2023-03-25T23:48:54.839Z,98.50
2023-03-25T23:51:25.329Z,98.50
2023-03-25T23:53:52.749Z,98.50
2023-03-25T23:56:22.425Z,98.50
2023-03-25T23:58:49.632Z,98.50
